Time;durP1;ratioP1;P1;durP2;ratioP2;P2;SDS_P1;SDS_P2;PMS_P1;PMS_P2;Temp;Humidity;BMP_temperature;BMP_pressure;BME280_temperature;BME280_humidity;BME280_pressure;Samples;Min_cycle;Max_cycle;Signal;HPM_P1;HPM_P2
2023/08/12 00:02:03;;;;;;;;;;;;;;;19.77;73.2793;101778.5;;;;-72
2023/08/12 00:07:03;;;;;;;;;;;;;;;19.74;73.66016;101776.1;;;;-71
2023/08/12 00:12:03;;;;;;;;;;;;;;;19.69;73.83203;101778.3;;;;-72
2023/08/12 00:15:56;;;;;;;0.2;0.1;;;;;;;;;;;;;-71
2023/08/12 00:17:03;;;;;;;;;;;;;;;19.68;74.41895;101772.4;;;;-72
2023/08/12 00:22:04;;;;;;;;;;;;;;;19.7;74.19629;101767.1;;;;-72
2023/08/12 00:27:04;;;;;;;;;;;;;;;19.67;74.20313;101763.4;;;;-71
2023/08/12 00:32:03;;;;;;;;;;;;;;;19.64;73.99316;101763.6;;;;-72
2023/08/12 00:37:03;;;;;;;;;;;;;;;19.64;73.83594;101764.3;;;;-72
2023/08/12 00:42:03;;;;;;;;;;;;;;;19.59;74.77734;101766.1;;;;-71
2023/08/12 00:45:56;;;;;;;0.2;0;;;;;;;;;;;;;-71
2023/08/12 00:47:03;;;;;;;;;;;;;;;19.55;73.79883;101766.2;;;;-71
2023/08/12 00:52:04;;;;;;;;;;;;;;;19.56;74.51172;101763.9;;;;-71
2023/08/12 00:57:04;;;;;;;;;;;;;;;19.53;74.06543;101756.4;;;;-71
2023/08/12 01:02:04;;;;;;;;;;;;;;;19.5;74.11719;101749.3;;;;-71
2023/08/12 01:07:03;;;;;;;;;;;;;;;19.48;74.93848;101742;;;;-73
2023/08/12 01:12:07;;;;;;;;;;;;;;;19.48;74.76953;101735.1;;;;-71
2023/08/12 01:16:03;;;;;;;0.2;0.1;;;;;;;;;;;;;-71
2023/08/12 01:17:06;;;;;;;;;;;;;;;19.48;75.1084;101734.2;;;;-71
2023/08/12 01:22:04;;;;;;;;;;;;;;;19.46;74.7334;101726.1;;;;-71
2023/08/12 01:27:04;;;;;;;;;;;;;;;19.47;75.21973;101727.5;;;;-73
2023/08/12 01:32:06;;;;;;;;;;;;;;;19.47;75.50391;101714.3;;;;-76
2023/08/12 01:37:05;;;;;;;;;;;;;;;19.45;75.5127;101712.3;;;;-71
2023/08/12 01:42:04;;;;;;;;;;;;;;;19.45;75.30859;101705.9;;;;-71
2023/08/12 01:46:03;;;;;;;0.2;0.1;;;;;;;;;;;;;-71
2023/08/12 01:47:05;;;;;;;;;;;;;;;19.46;75.70605;101703.8;;;;-72
2023/08/12 01:52:03;;;;;;;;;;;;;;;19.47;75.59375;101709.6;;;;-71
2023/08/12 01:57:05;;;;;;;;;;;;;;;19.46;76.19238;101702.8;;;;-72
2023/08/12 02:02:04;;;;;;;;;;;;;;;19.46;76.12305;101685.9;;;;-74
2023/08/12 02:07:03;;;;;;;;;;;;;;;19.45;75.84082;101686.7;;;;-72
2023/08/12 02:12:03;;;;;;;;;;;;;;;19.47;76.35059;101677.3;;;;-71
2023/08/12 02:16:06;;;;;;;0.2;0.1;;;;;;;;;;;;;-72
2023/08/12 02:17:05;;;;;;;;;;;;;;;19.47;76.64648;101670.2;;;;-71
2023/08/12 02:22:04;;;;;;;;;;;;;;;19.48;76.87207;101680.1;;;;-71
2023/08/12 02:27:04;;;;;;;;;;;;;;;19.47;77.46973;101676.1;;;;-72
2023/08/12 02:32:03;;;;;;;;;;;;;;;19.47;78.27246;101670.4;;;;-71
2023/08/12 02:37:04;;;;;;;;;;;;;;;19.48;78.30957;101659.7;;;;-72
2023/08/12 02:42:03;;;;;;;;;;;;;;;19.5;79.05859;101659;;;;-70
2023/08/12 02:46:09;;;;;;;0.2;0;;;;;;;;;;;;;-72
2023/08/12 02:47:03;;;;;;;;;;;;;;;19.51;78.23535;101655.8;;;;-71
2023/08/12 02:52:03;;;;;;;;;;;;;;;19.53;77.25488;101647.1;;;;-73
2023/08/12 02:57:03;;;;;;;;;;;;;;;19.53;77.17578;101642.4;;;;-70
2023/08/12 03:02:04;;;;;;;;;;;;;;;19.55;77.51953;101640.1;;;;-70
2023/08/12 03:07:07;;;;;;;;;;;;;;;19.58;79.47754;101639.6;;;;-71
2023/08/12 03:12:04;;;;;;;;;;;;;;;19.61;78.99707;101633;;;;-72
2023/08/12 03:16:14;;;;;;;0.3;0.1;;;;;;;;;;;;;-71
2023/08/12 03:17:03;;;;;;;;;;;;;;;19.62;78.83203;101628.2;;;;-71
2023/08/12 03:22:04;;;;;;;;;;;;;;;19.62;78.68555;101628.5;;;;-71
2023/08/12 03:27:03;;;;;;;;;;;;;;;19.63;78.80957;101622.1;;;;-70
2023/08/12 03:32:06;;;;;;;;;;;;;;;19.65;78.7334;101619;;;;-72
2023/08/12 03:37:03;;;;;;;;;;;;;;;19.63;79.30859;101615.6;;;;-71
2023/08/12 03:42:03;;;;;;;;;;;;;;;19.63;78.91309;101611.1;;;;-71
2023/08/12 03:46:15;;;;;;;0.2;0;;;;;;;;;;;;;-71
2023/08/12 03:47:06;;;;;;;;;;;;;;;19.63;79.25;101599.8;;;;-72
2023/08/12 03:52:03;;;;;;;;;;;;;;;19.64;79.11621;101607.7;;;;-71
2023/08/12 03:57:06;;;;;;;;;;;;;;;19.63;80.4707;101596.5;;;;-74
2023/08/12 04:02:03;;;;;;;;;;;;;;;19.63;79.1709;101591.1;;;;-70
2023/08/12 04:07:03;;;;;;;;;;;;;;;19.65;80.21387;101585.8;;;;-70
2023/08/12 04:12:03;;;;;;;;;;;;;;;19.63;81.33984;101584;;;;-71
2023/08/12 04:16:23;;;;;;;0.3;0.1;;;;;;;;;;;;;-71
2023/08/12 04:17:06;;;;;;;;;;;;;;;19.62;79.96191;101567.7;;;;-71
2023/08/12 04:22:06;;;;;;;;;;;;;;;19.61;78.89648;101572.6;;;;-71
2023/08/12 04:27:03;;;;;;;;;;;;;;;19.61;78.87207;101575.9;;;;-70
2023/08/12 04:32:07;;;;;;;;;;;;;;;19.6;78.68066;101561.8;;;;-71
2023/08/12 04:37:04;;;;;;;;;;;;;;;19.6;78.5791;101550.3;;;;-71
2023/08/12 04:42:03;;;;;;;;;;;;;;;19.59;78.55469;101553.9;;;;-72
2023/08/12 04:46:24;;;;;;;0.2;0.1;;;;;;;;;;;;;-71
2023/08/12 04:47:03;;;;;;;;;;;;;;;19.62;80.27637;101545.1;;;;-70
2023/08/12 04:52:03;;;;;;;;;;;;;;;19.62;78.23145;101545.1;;;;-73
2023/08/12 04:57:03;;;;;;;;;;;;;;;19.62;78.59473;101543.5;;;;-72
2023/08/12 05:02:05;;;;;;;;;;;;;;;19.64;78.79004;101541.4;;;;-70
2023/08/12 05:07:03;;;;;;;;;;;;;;;19.65;79.00488;101533.2;;;;-70
2023/08/12 05:12:03;;;;;;;;;;;;;;;19.65;78.89355;101524.5;;;;-70
2023/08/12 05:16:28;;;;;;;0.2;0.1;;;;;;;;;;;;;-71
2023/08/12 05:17:03;;;;;;;;;;;;;;;19.68;79.1582;101527.3;;;;-71
2023/08/12 05:22:03;;;;;;;;;;;;;;;19.69;79.46484;101517.2;;;;-70
2023/08/12 05:27:04;;;;;;;;;;;;;;;19.69;79.90527;101512.1;;;;-71
2023/08/12 05:32:04;;;;;;;;;;;;;;;19.71;79.76172;101516.6;;;;-72
2023/08/12 05:37:04;;;;;;;;;;;;;;;19.74;79.35059;101515.9;;;;-70
2023/08/12 05:42:04;;;;;;;;;;;;;;;19.77;80.07813;101527.1;;;;-72
2023/08/12 05:46:28;;;;;;;0.2;0.1;;;;;;;;;;;;;-71
2023/08/12 05:47:03;;;;;;;;;;;;;;;19.8;79.78906;101529.8;;;;-71
2023/08/12 05:52:04;;;;;;;;;;;;;;;19.83;79.76172;101525.3;;;;-72
2023/08/12 05:57:03;;;;;;;;;;;;;;;19.84;79.31152;101526.6;;;;-72
2023/08/12 06:02:03;;;;;;;;;;;;;;;19.89;79.59082;101522.3;;;;-71
2023/08/12 06:07:06;;;;;;;;;;;;;;;19.93;81.82422;101536.5;;;;-71
2023/08/12 06:12:03;;;;;;;;;;;;;;;19.93;79.41699;101529.7;;;;-70
2023/08/12 06:16:31;;;;;;;0.2;0.1;;;;;;;;;;;;;-71
2023/08/12 06:17:03;;;;;;;;;;;;;;;19.95;81.7373;101530.1;;;;-71
2023/08/12 06:22:04;;;;;;;;;;;;;;;19.94;81.32813;101522.2;;;;-72
2023/08/12 06:27:04;;;;;;;;;;;;;;;19.94;81.20605;101513.3;;;;-70
2023/08/12 06:32:04;;;;;;;;;;;;;;;19.92;81.34766;101521.5;;;;-71
2023/08/12 06:37:03;;;;;;;;;;;;;;;19.91;81.41406;101508.6;;;;-71
2023/08/12 06:42:03;;;;;;;;;;;;;;;19.9;81.33301;101510.4;;;;-71
2023/08/12 06:46:34;;;;;;;0.2;0;;;;;;;;;;;;;-71
2023/08/12 06:47:03;;;;;;;;;;;;;;;19.9;81.23145;101501.5;;;;-70
2023/08/12 06:52:05;;;;;;;;;;;;;;;19.89;81.76074;101503.8;;;;-70
2023/08/12 06:57:03;;;;;;;;;;;;;;;19.89;81.47852;101497.9;;;;-70
2023/08/12 07:02:03;;;;;;;;;;;;;;;19.88;81.33984;101497.5;;;;-72
2023/08/12 07:07:03;;;;;;;;;;;;;;;19.89;81.25195;101500.2;;;;-72
2023/08/12 07:12:04;;;;;;;;;;;;;;;19.9;80.57617;101480.8;;;;-72
2023/08/12 07:16:38;;;;;;;0.2;0;;;;;;;;;;;;;-71
2023/08/12 07:17:04;;;;;;;;;;;;;;;19.94;80.17773;101481;;;;-71
2023/08/12 07:22:03;;;;;;;;;;;;;;;19.99;80.01563;101477.9;;;;-71
2023/08/12 07:27:03;;;;;;;;;;;;;;;20.1;82.07031;101479.9;;;;-70
2023/08/12 07:32:03;;;;;;;;;;;;;;;20.17;81.92383;101478.1;;;;-72
2023/08/12 07:37:03;;;;;;;;;;;;;;;20.25;81.09082;101474.6;;;;-71
2023/08/12 07:42:07;;;;;;;;;;;;;;;20.31;81.2041;101473.5;;;;-73
2023/08/12 07:46:41;;;;;;;0.2;0.1;;;;;;;;;;;;;-70
2023/08/12 07:47:04;;;;;;;;;;;;;;;20.35;83.93555;101471.9;;;;-71
2023/08/12 07:52:03;;;;;;;;;;;;;;;20.36;85.32715;101487.2;;;;-73
2023/08/12 07:57:05;;;;;;;;;;;;;;;20.31;83.94043;101509.9;;;;-71
2023/08/12 08:02:03;;;;;;;;;;;;;;;20.18;84.21973;101520.3;;;;-73
2023/08/12 08:07:03;;;;;;;;;;;;;;;19.99;84.03906;101540.7;;;;-71
2023/08/12 08:12:07;;;;;;;;;;;;;;;19.82;83.48633;101562.8;;;;-71
2023/08/12 08:16:45;;;;;;;0.2;0.1;;;;;;;;;;;;;-71
2023/08/12 08:17:03;;;;;;;;;;;;;;;19.55;83.25684;101544.1;;;;-73
2023/08/12 08:22:04;;;;;;;;;;;;;;;19.37;82.71582;101544.7;;;;-71
2023/08/12 08:27:04;;;;;;;;;;;;;;;19.23;81.95508;101554.5;;;;-72
2023/08/12 08:32:03;;;;;;;;;;;;;;;19.09;82.34766;101552.6;;;;-71
2023/08/12 08:37:03;;;;;;;;;;;;;;;18.93;82.38477;101562.3;;;;-72
2023/08/12 08:42:04;;;;;;;;;;;;;;;18.86;81.87598;101553.1;;;;-72
2023/08/12 08:46:49;;;;;;;0.2;0.1;;;;;;;;;;;;;-71
2023/08/12 08:47:05;;;;;;;;;;;;;;;18.81;81.95703;101565.1;;;;-71
2023/08/12 08:52:04;;;;;;;;;;;;;;;18.79;81.35645;101551.4;;;;-71
2023/08/12 08:57:04;;;;;;;;;;;;;;;18.77;80.88184;101533.1;;;;-71
2023/08/12 09:02:04;;;;;;;;;;;;;;;18.76;80.75293;101525.5;;;;-70
2023/08/12 09:07:07;;;;;;;;;;;;;;;18.82;80.55176;101530.3;;;;-72
2023/08/12 09:12:03;;;;;;;;;;;;;;;18.93;80.81934;101533.3;;;;-72
2023/08/12 09:16:52;;;;;;;0.2;0;;;;;;;;;;;;;-72
2023/08/12 09:17:06;;;;;;;;;;;;;;;19.01;80.34766;101530.8;;;;-71
2023/08/12 09:22:03;;;;;;;;;;;;;;;19.09;80.80078;101533.7;;;;-73
2023/08/12 09:27:04;;;;;;;;;;;;;;;19.15;80.33984;101537.1;;;;-71
2023/08/12 09:32:06;;;;;;;;;;;;;;;19.21;80.23828;101537.4;;;;-71
2023/08/12 09:37:07;;;;;;;;;;;;;;;19.34;81.15332;101544.5;;;;-71
2023/08/12 09:42:03;;;;;;;;;;;;;;;19.5;79.57813;101555;;;;-71
2023/08/12 09:46:59;;;;;;;0.3;0.2;;;;;;;;;;;;;-70
2023/08/12 09:47:09;;;;;;;;;;;;;;;19.69;82.32324;101536.9;;;;-72
2023/08/12 09:52:06;;;;;;;;;;;;;;;20.07;84.04297;101548.5;;;;-69
2023/08/12 09:57:06;;;;;;;;;;;;;;;20.47;83.10059;101560.5;;;;-71
2023/08/12 10:02:07;;;;;;;;;;;;;;;20.57;83.45801;101548.7;;;;-71
2023/08/12 10:07:04;;;;;;;;;;;;;;;20.75;83.70508;101558.8;;;;-71
2023/08/12 10:12:04;;;;;;;;;;;;;;;20.89;83.52734;101546.1;;;;-70
2023/08/12 10:16:58;;;;;;;0.2;0.1;;;;;;;;;;;;;-70
2023/08/12 10:17:15;;;;;;;;;;;;;;;20.97;83.00098;101550.8;;;;-70
2023/08/12 10:22:08;;;;;;;;;;;;;;;20.95;82.59961;101553.2;;;;-71
2023/08/12 10:27:05;;;;;;;;;;;;;;;20.99;81.45215;101555.2;;;;-71
2023/08/12 10:32:06;;;;;;;;;;;;;;;21.02;81.25391;101562.4;;;;-71
2023/08/12 10:37:06;;;;;;;;;;;;;;;21.03;82.28613;101570.6;;;;-73
2023/08/12 10:42:05;;;;;;;;;;;;;;;21.33;82.39746;101565.1;;;;-74
2023/08/12 10:47:02;;;;;;;0.2;0;;;;;;;;;;;;;-69
2023/08/12 10:47:15;;;;;;;;;;;;;;;21.85;81.00684;101552.2;;;;-72
2023/08/12 10:52:03;;;;;;;;;;;;;;;22.32;79.62402;101542.7;;;;-70
2023/08/12 10:57:16;;;;;;;;;;;;;;;22.64;78.68066;101551.8;;;;-70
2023/08/12 11:02:20;;;;;;;;;;;;;;;22.87;76.72754;101543.5;;;;-70
2023/08/12 11:07:03;;;;;;;;;;;;;;;23.1;75.12695;101546.8;;;;-69
2023/08/12 11:12:04;;;;;;;;;;;;;;;23.32;76.01855;101544;;;;-70
2023/08/12 11:17:14;;;;;;;;;;;;;;;23.54;73.6582;101551.3;;;;-69
2023/08/12 11:17:31;;;;;;;0.2;0;;;;;;;;;;;;;-69
2023/08/12 11:22:04;;;;;;;;;;;;;;;23.6;72.62793;101550.3;;;;-72
2023/08/12 11:27:04;;;;;;;;;;;;;;;23.85;73.14941;101549.6;;;;-70
2023/08/12 11:32:03;;;;;;;;;;;;;;;24.17;76.8584;101555.8;;;;-69
2023/08/12 11:37:04;;;;;;;;;;;;;;;24.48;76.75098;101551.6;;;;-74
2023/08/12 11:42:03;;;;;;;;;;;;;;;24.77;75.96582;101557.4;;;;-69
2023/08/12 11:47:03;;;;;;;;;;;;;;;25;75.53418;101561.1;;;;-69
2023/08/12 11:47:13;;;;;;;0.2;0.1;;;;;;;;;;;;;-69
2023/08/12 11:52:04;;;;;;;;;;;;;;;25.33;75.17773;101560.3;;;;-70
2023/08/12 11:57:03;;;;;;;;;;;;;;;25.52;73.53613;101561;;;;-68
2023/08/12 12:02:05;;;;;;;;;;;;;;;25.82;73.59473;101553.1;;;;-67
2023/08/12 12:07:06;;;;;;;;;;;;;;;26.04;73.68945;101558.1;;;;-69
2023/08/12 12:12:04;;;;;;;;;;;;;;;26.29;73.16406;101558.5;;;;-71
2023/08/12 12:17:03;;;;;;;;;;;;;;;26.5;72.69434;101565.6;;;;-69
2023/08/12 12:17:15;;;;;;;0.3;0.1;;;;;;;;;;;;;-69
2023/08/12 12:22:06;;;;;;;;;;;;;;;26.77;71.51758;101564.3;;;;-69
2023/08/12 12:27:04;;;;;;;;;;;;;;;26.94;72.23438;101566.5;;;;-68
2023/08/12 12:32:03;;;;;;;;;;;;;;;26.84;71.18359;101573;;;;-68
2023/08/12 12:37:03;;;;;;;;;;;;;;;26.9;71.19238;101580.8;;;;-71
2023/08/12 12:42:03;;;;;;;;;;;;;;;27.17;70.3584;101579.8;;;;-71
2023/08/12 12:47:03;;;;;;;;;;;;;;;27.35;69.85645;101582.3;;;;-69
2023/08/12 12:47:18;;;;;;;0.2;0;;;;;;;;;;;;;-70
2023/08/12 12:52:03;;;;;;;;;;;;;;;27.33;69.09277;101585.1;;;;-69
2023/08/12 12:57:03;;;;;;;;;;;;;;;27.53;68.01465;101584.3;;;;-69
2023/08/12 13:02:03;;;;;;;;;;;;;;;27.75;67.57617;101590.8;;;;-68
2023/08/12 13:07:06;;;;;;;;;;;;;;;27.69;67.04688;101591.9;;;;-72
2023/08/12 13:12:03;;;;;;;;;;;;;;;27.79;66.4375;101593.6;;;;-69
2023/08/12 13:17:03;;;;;;;;;;;;;;;27.66;66.00195;101591.9;;;;-69
2023/08/12 13:17:22;;;;;;;0.2;0;;;;;;;;;;;;;-69
2023/08/12 13:22:04;;;;;;;;;;;;;;;27.7;67.11719;101597.7;;;;-69
2023/08/12 13:27:03;;;;;;;;;;;;;;;27.68;65.63672;101591;;;;-68
2023/08/12 13:32:03;;;;;;;;;;;;;;;27.76;65.62402;101587.3;;;;-69
2023/08/12 13:37:04;;;;;;;;;;;;;;;27.99;64.13184;101600.9;;;;-70
2023/08/12 13:42:03;;;;;;;;;;;;;;;27.98;64.6377;101594.7;;;;-69
2023/08/12 13:47:03;;;;;;;;;;;;;;;28.06;63.92188;101601;;;;-67
2023/08/12 13:47:27;;;;;;;0.3;0.1;;;;;;;;;;;;;-70
2023/08/12 13:52:03;;;;;;;;;;;;;;;28.03;64.92285;101596.2;;;;-70
2023/08/12 13:57:04;;;;;;;;;;;;;;;28;64.0166;101594.5;;;;-71
2023/08/12 14:02:03;;;;;;;;;;;;;;;28.19;63.5;101600.5;;;;-70
2023/08/12 14:07:03;;;;;;;;;;;;;;;28.21;63.34082;101598.4;;;;-68
2023/08/12 14:12:06;;;;;;;;;;;;;;;28.08;62.44336;101609.5;;;;-69
2023/08/12 14:17:03;;;;;;;;;;;;;;;27.74;62.02637;101613.9;;;;-69
2023/08/12 14:17:32;;;;;;;0.2;0.1;;;;;;;;;;;;;-68
2023/08/12 14:22:03;;;;;;;;;;;;;;;27.76;61.43945;101613.2;;;;-69
2023/08/12 14:31:21;;;;;;;;;;;;;;;27.74;62.11914;101619.1;;;;-69
2023/08/12 14:36:20;;;;;;;;;;;;;;;27.85;61.36914;101620.8;;;;-69
2023/08/12 14:41:21;;;;;;;;;;;;;;;27.79;60.12402;101603.8;;;;-69
2023/08/12 14:46:20;;;;;;;;;;;;;;;27.64;59.5127;101614.8;;;;-70
2023/08/12 14:47:38;;;;;;;0.2;0;;;;;;;;;;;;;-69
2023/08/12 14:51:21;;;;;;;;;;;;;;;27.6;58.83691;101622.2;;;;-70
2023/08/12 14:56:20;;;;;;;;;;;;;;;27.53;59.07227;101622.5;;;;-69
2023/08/12 15:01:24;;;;;;;;;;;;;;;27.53;59.24316;101619.5;;;;-69
2023/08/12 15:06:20;;;;;;;;;;;;;;;27.44;59.29102;101612.2;;;;-69
2023/08/12 15:11:20;;;;;;;;;;;;;;;27.37;59.58301;101604.1;;;;-68
2023/08/12 15:16:20;;;;;;;;;;;;;;;27.38;58.57715;101606;;;;-70
2023/08/12 15:17:43;;;;;;;0.2;0;;;;;;;;;;;;;-70
2023/08/12 15:21:21;;;;;;;;;;;;;;;27.39;58.0127;101606.5;;;;-69
2023/08/12 15:26:22;;;;;;;;;;;;;;;27.35;59.10449;101606.9;;;;-69
2023/08/12 15:31:21;;;;;;;;;;;;;;;27.27;58.7832;101594.9;;;;-68
2023/08/12 15:36:23;;;;;;;;;;;;;;;27.22;57.48145;101602.5;;;;-69
2023/08/12 15:41:24;;;;;;;;;;;;;;;27.04;57.45703;101597.7;;;;-73
2023/08/12 15:46:25;;;;;;;;;;;;;;;27.1;57.95117;101615;;;;-71
2023/08/12 15:47:47;;;;;;;0.1;0;;;;;;;;;;;;;-69
2023/08/12 15:51:21;;;;;;;;;;;;;;;27.01;57.41895;101602.8;;;;-72
2023/08/12 15:56:20;;;;;;;;;;;;;;;27.02;56.73828;101604.4;;;;-68
2023/08/12 16:01:21;;;;;;;;;;;;;;;26.96;57.29785;101598.8;;;;-67
2023/08/12 16:06:20;;;;;;;;;;;;;;;26.78;57.07813;101604;;;;-69
2023/08/12 16:11:21;;;;;;;;;;;;;;;26.57;57.0752;101601.2;;;;-69
2023/08/12 16:16:24;;;;;;;;;;;;;;;26.41;57.97852;101597.8;;;;-69
2023/08/12 16:17:55;;;;;;;0.2;0;;;;;;;;;;;;;-69
2023/08/12 16:21:20;;;;;;;;;;;;;;;26.3;57.6875;101598.3;;;;-68
2023/08/12 16:26:20;;;;;;;;;;;;;;;26.2;58.12402;101601.9;;;;-68
2023/08/12 16:31:21;;;;;;;;;;;;;;;25.96;57.33301;101597.9;;;;-68
2023/08/12 16:36:20;;;;;;;;;;;;;;;25.71;57.18457;101604.4;;;;-69
2023/08/12 16:41:20;;;;;;;;;;;;;;;25.48;56.71777;101596.4;;;;-68
2023/08/12 16:46:22;;;;;;;;;;;;;;;25.34;56.48047;101602.9;;;;-69
2023/08/12 16:47:57;;;;;;;0.3;0.1;;;;;;;;;;;;;-72
2023/08/12 16:51:22;;;;;;;;;;;;;;;25.13;56.38574;101602.2;;;;-68
2023/08/12 16:56:21;;;;;;;;;;;;;;;24.99;56.21875;101596.3;;;;-69
2023/08/12 17:01:20;;;;;;;;;;;;;;;24.92;55.95605;101592.5;;;;-70
2023/08/12 17:06:20;;;;;;;;;;;;;;;24.66;56.08594;101593.1;;;;-68
2023/08/12 17:11:20;;;;;;;;;;;;;;;24.47;55.00391;101598.1;;;;-69
2023/08/12 17:16:20;;;;;;;;;;;;;;;24.23;56.08984;101587.9;;;;-69
2023/08/12 17:18:01;;;;;;;0.2;0;;;;;;;;;;;;;-67
2023/08/12 17:21:20;;;;;;;;;;;;;;;24.05;55.59473;101596.7;;;;-69
2023/08/12 17:26:23;;;;;;;;;;;;;;;23.82;55.76172;101598.1;;;;-68
2023/08/12 17:31:21;;;;;;;;;;;;;;;23.68;56.28613;101604.6;;;;-72
2023/08/12 17:36:22;;;;;;;;;;;;;;;23.41;56.81348;101601.1;;;;-70
2023/08/12 17:41:20;;;;;;;;;;;;;;;23.35;56.70313;101605.6;;;;-70
2023/08/12 17:46:21;;;;;;;;;;;;;;;23.27;56.58887;101600.4;;;;-70
2023/08/12 17:48:06;;;;;;;0.2;0;;;;;;;;;;;;;-71
2023/08/12 17:51:20;;;;;;;;;;;;;;;23.13;56.62988;101604.6;;;;-69
2023/08/12 17:56:21;;;;;;;;;;;;;;;22.94;56.91406;101609.8;;;;-70
2023/08/12 18:01:20;;;;;;;;;;;;;;;22.8;56.95313;101608.9;;;;-69
2023/08/12 18:06:20;;;;;;;;;;;;;;;22.63;56.45117;101605.2;;;;-70
2023/08/12 18:11:20;;;;;;;;;;;;;;;22.48;56.78711;101607;;;;-69
2023/08/12 18:16:20;;;;;;;;;;;;;;;22.26;57.2168;101608.2;;;;-70
2023/08/12 18:18:10;;;;;;;0.2;0;;;;;;;;;;;;;-71
2023/08/12 18:21:20;;;;;;;;;;;;;;;22.18;57.48145;101610.2;;;;-71
2023/08/12 18:26:21;;;;;;;;;;;;;;;22;57.93945;101611.7;;;;-69
2023/08/12 18:31:20;;;;;;;;;;;;;;;21.86;57.89746;101623.7;;;;-70
2023/08/12 18:36:23;;;;;;;;;;;;;;;21.74;57.6416;101623.9;;;;-71
2023/08/12 18:41:20;;;;;;;;;;;;;;;21.59;57.875;101626.1;;;;-70
2023/08/12 18:46:20;;;;;;;;;;;;;;;21.43;58.32129;101621.8;;;;-72
2023/08/12 18:48:14;;;;;;;0.2;0;;;;;;;;;;;;;-71
2023/08/12 18:51:23;;;;;;;;;;;;;;;21.29;58.32617;101631;;;;-71
2023/08/12 18:56:30;;;;;;;;;;;;;;;21.16;58.92578;101634.8;;;;-71
2023/08/12 19:01:21;;;;;;;;;;;;;;;21.05;59.30957;101632.4;;;;-72
2023/08/12 19:06:20;;;;;;;;;;;;;;;20.87;59.73145;101640.7;;;;-71
2023/08/12 19:11:23;;;;;;;;;;;;;;;20.76;59.68164;101627.5;;;;-70
2023/08/12 19:16:25;;;;;;;;;;;;;;;20.64;60.24609;101637.3;;;;-73
2023/08/12 19:18:18;;;;;;;2.2;0.4;;;;;;;;;;;;;-71
2023/08/12 19:21:20;;;;;;;;;;;;;;;20.49;60.41016;101639.8;;;;-72
2023/08/12 19:26:22;;;;;;;;;;;;;;;20.38;60.99707;101644.1;;;;-70
2023/08/12 19:31:20;;;;;;;;;;;;;;;20.27;61.1416;101639.5;;;;-68
2023/08/12 19:36:20;;;;;;;;;;;;;;;20.16;61.61426;101648.1;;;;-71
2023/08/12 19:41:26;;;;;;;;;;;;;;;20.07;61.92188;101651.9;;;;-71
2023/08/12 19:46:20;;;;;;;;;;;;;;;20;62.33203;101654.7;;;;-70
2023/08/12 19:48:24;;;;;;;0.2;0;;;;;;;;;;;;;-71
2023/08/12 19:51:21;;;;;;;;;;;;;;;19.95;62.94922;101650.4;;;;-70
2023/08/12 19:56:20;;;;;;;;;;;;;;;19.89;63.67871;101657.6;;;;-70
2023/08/12 20:01:21;;;;;;;;;;;;;;;19.83;63.14844;101664.5;;;;-70
2023/08/12 20:06:23;;;;;;;;;;;;;;;19.76;63.14941;101662.2;;;;-71
2023/08/12 20:11:25;;;;;;;;;;;;;;;19.66;63.71484;101664.1;;;;-71
2023/08/12 20:16:20;;;;;;;;;;;;;;;19.56;63.8252;101663.1;;;;-70
2023/08/12 20:18:27;;;;;;;0.2;0;;;;;;;;;;;;;-71
2023/08/12 20:21:23;;;;;;;;;;;;;;;19.47;64.27832;101662.4;;;;-71
2023/08/12 20:26:22;;;;;;;;;;;;;;;19.37;64.51367;101665.1;;;;-73
2023/08/12 20:31:23;;;;;;;;;;;;;;;19.28;65.18066;101652.6;;;;-70
2023/08/12 20:36:21;;;;;;;;;;;;;;;19.2;64.66992;101654.5;;;;-71
2023/08/12 20:41:23;;;;;;;;;;;;;;;19.14;65.16113;101650.9;;;;-70
2023/08/12 20:46:20;;;;;;;;;;;;;;;19.08;65.01563;101649.1;;;;-70
2023/08/12 20:48:28;;;;;;;0.6;0.3;;;;;;;;;;;;;-72
2023/08/12 20:51:21;;;;;;;;;;;;;;;19.04;65.56543;101645.3;;;;-71
2023/08/12 20:56:20;;;;;;;;;;;;;;;18.97;65.57715;101653;;;;-71
2023/08/12 21:01:20;;;;;;;;;;;;;;;18.92;66.14746;101652.8;;;;-71
2023/08/12 21:06:20;;;;;;;;;;;;;;;18.85;66.18262;101652.6;;;;-71
2023/08/12 21:11:20;;;;;;;;;;;;;;;18.79;66.52441;101650.1;;;;-70
2023/08/12 21:16:24;;;;;;;;;;;;;;;18.73;66.88965;101653.5;;;;-71
2023/08/12 21:18:32;;;;;;;0.2;0;;;;;;;;;;;;;-71
2023/08/12 21:21:20;;;;;;;;;;;;;;;18.7;67.28027;101661.8;;;;-71
2023/08/12 21:26:26;;;;;;;;;;;;;;;18.64;67.74707;101654.3;;;;-71
2023/08/12 21:31:23;;;;;;;;;;;;;;;18.6;67.33301;101649.5;;;;-71
2023/08/12 21:36:20;;;;;;;;;;;;;;;18.57;68.0293;101653.6;;;;-71
2023/08/12 21:41:20;;;;;;;;;;;;;;;18.53;67.83105;101650.3;;;;-71
2023/08/12 21:46:20;;;;;;;;;;;;;;;18.5;67.84961;101653;;;;-72
2023/08/12 21:48:38;;;;;;;0.2;0;;;;;;;;;;;;;-72
2023/08/12 21:51:22;;;;;;;;;;;;;;;18.45;67.98828;101654.2;;;;-71
2023/08/12 21:56:21;;;;;;;;;;;;;;;18.39;68.30664;101658.9;;;;-71
2023/08/12 22:01:21;;;;;;;;;;;;;;;18.34;68.4248;101657;;;;-72
2023/08/12 22:06:20;;;;;;;;;;;;;;;18.33;68.5918;101660.9;;;;-71
2023/08/12 22:11:21;;;;;;;;;;;;;;;18.28;68.60742;101659.7;;;;-71
2023/08/12 22:16:21;;;;;;;;;;;;;;;18.21;69.07227;101660.6;;;;-72
2023/08/12 22:18:41;;;;;;;0.2;0.1;;;;;;;;;;;;;-73
2023/08/12 22:21:20;;;;;;;;;;;;;;;18.21;68.86719;101662.6;;;;-71
2023/08/12 22:26:22;;;;;;;;;;;;;;;18.17;69.60742;101663.7;;;;-72
2023/08/12 22:31:20;;;;;;;;;;;;;;;18.16;70.06738;101659.2;;;;-72
2023/08/12 22:36:21;;;;;;;;;;;;;;;18.13;69.61328;101654.6;;;;-71
2023/08/12 22:41:20;;;;;;;;;;;;;;;18.11;70.91895;101651.8;;;;-71
2023/08/12 22:46:21;;;;;;;;;;;;;;;18.1;70.37695;101656.8;;;;-71
2023/08/12 22:48:43;;;;;;;0.2;0.1;;;;;;;;;;;;;-71
2023/08/12 22:51:20;;;;;;;;;;;;;;;18.03;70.75977;101657.7;;;;-70
2023/08/12 22:56:21;;;;;;;;;;;;;;;18;71.45605;101663;;;;-71
2023/08/12 23:01:20;;;;;;;;;;;;;;;17.95;71.08594;101652.8;;;;-72
2023/08/12 23:06:20;;;;;;;;;;;;;;;17.93;71.4668;101656.3;;;;-70
2023/08/12 23:11:20;;;;;;;;;;;;;;;17.9;71.6875;101653.9;;;;-70
2023/08/12 23:16:21;;;;;;;;;;;;;;;17.84;71.75488;101656.8;;;;-72
2023/08/12 23:18:47;;;;;;;0.2;0;;;;;;;;;;;;;-72
2023/08/12 23:21:23;;;;;;;;;;;;;;;17.82;71.39063;101654.7;;;;-71
2023/08/12 23:26:20;;;;;;;;;;;;;;;17.78;71.56543;101659.3;;;;-70
2023/08/12 23:31:20;;;;;;;;;;;;;;;17.72;72.3125;101658.2;;;;-72
2023/08/12 23:36:21;;;;;;;;;;;;;;;17.69;72.54297;101658.4;;;;-71
2023/08/12 23:41:21;;;;;;;;;;;;;;;17.66;72.26758;101658.2;;;;-71
2023/08/12 23:46:20;;;;;;;;;;;;;;;17.67;72.90039;101655.6;;;;-71
2023/08/12 23:48:47;;;;;;;0.2;0.1;;;;;;;;;;;;;-71
2023/08/12 23:51:20;;;;;;;;;;;;;;;17.69;73.18555;101655.1;;;;-71
2023/08/12 23:56:20;;;;;;;;;;;;;;;17.74;74.35547;101650.2;;;;-70
